sensor_id;sensor_type;location;lat;lon;timestamp;P1;durP1;ratioP1;P2;durP2;ratioP2
51260;SDS011;61705;46.228;24.812;2023-03-21T00:00:44;48.30;;;24.13;;
51260;SDS011;61705;46.228;24.812;2023-03-21T00:03:13;46.30;;;25.40;;
51260;SDS011;61705;46.228;24.812;2023-03-21T00:05:43;43.88;;;23.35;;
51260;SDS011;61705;46.228;24.812;2023-03-21T00:08:19;46.72;;;24.13;;
51260;SDS011;61705;46.228;24.812;2023-03-21T00:13:38;46.95;;;24.58;;
51260;SDS011;61705;46.228;24.812;2023-03-21T00:16:11;45.42;;;21.23;;
51260;SDS011;61705;46.228;24.812;2023-03-21T00:18:52;47.63;;;22.83;;
51260;SDS011;61705;46.228;24.812;2023-03-21T00:21:24;53.30;;;22.65;;
51260;SDS011;61705;46.228;24.812;2023-03-21T00:24:13;52.72;;;22.52;;
51260;SDS011;61705;46.228;24.812;2023-03-21T00:26:40;48.85;;;22.55;;
51260;SDS011;61705;46.228;24.812;2023-03-21T00:29:10;48.08;;;23.90;;
51260;SDS011;61705;46.228;24.812;2023-03-21T00:31:37;48.65;;;26.63;;
51260;SDS011;61705;46.228;24.812;2023-03-21T00:34:03;56.58;;;28.40;;
51260;SDS011;61705;46.228;24.812;2023-03-21T00:36:30;62.53;;;28.13;;
51260;SDS011;61705;46.228;24.812;2023-03-21T00:38:57;54.38;;;25.65;;
51260;SDS011;61705;46.228;24.812;2023-03-21T00:41:33;50.88;;;24.48;;
51260;SDS011;61705;46.228;24.812;2023-03-21T00:44:09;55.17;;;24.67;;
51260;SDS011;61705;46.228;24.812;2023-03-21T00:46:39;72.65;;;27.85;;
51260;SDS011;61705;46.228;24.812;2023-03-21T00:49:26;48.80;;;25.05;;
51260;SDS011;61705;46.228;24.812;2023-03-21T00:51:53;52.85;;;25.45;;
51260;SDS011;61705;46.228;24.812;2023-03-21T00:54:30;56.28;;;27.35;;
51260;SDS011;61705;46.228;24.812;2023-03-21T00:56:57;58.67;;;24.92;;
51260;SDS011;61705;46.228;24.812;2023-03-21T00:59:26;54.72;;;29.05;;
51260;SDS011;61705;46.228;24.812;2023-03-21T01:01:53;65.93;;;31.88;;
51260;SDS011;61705;46.228;24.812;2023-03-21T01:04:25;55.58;;;29.52;;
51260;SDS011;61705;46.228;24.812;2023-03-21T01:06:53;60.65;;;29.88;;
51260;SDS011;61705;46.228;24.812;2023-03-21T01:09:23;58.40;;;28.27;;
51260;SDS011;61705;46.228;24.812;2023-03-21T01:11:50;55.50;;;28.05;;
51260;SDS011;61705;46.228;24.812;2023-03-21T01:14:18;50.80;;;28.20;;
51260;SDS011;61705;46.228;24.812;2023-03-21T01:16:49;54.65;;;26.92;;
51260;SDS011;61705;46.228;24.812;2023-03-21T01:19:18;50.17;;;26.60;;
51260;SDS011;61705;46.228;24.812;2023-03-21T01:22:03;57.30;;;26.67;;
51260;SDS011;61705;46.228;24.812;2023-03-21T01:24:29;58.92;;;28.13;;
51260;SDS011;61705;46.228;24.812;2023-03-21T01:27:00;60.03;;;29.30;;
51260;SDS011;61705;46.228;24.812;2023-03-21T01:29:27;52.08;;;27.48;;
51260;SDS011;61705;46.228;24.812;2023-03-21T01:31:54;93.00;;;29.45;;
51260;SDS011;61705;46.228;24.812;2023-03-21T01:34:21;58.70;;;27.45;;
51260;SDS011;61705;46.228;24.812;2023-03-21T01:36:50;57.03;;;28.27;;
51260;SDS011;61705;46.228;24.812;2023-03-21T01:39:17;54.80;;;27.05;;
51260;SDS011;61705;46.228;24.812;2023-03-21T01:41:43;53.60;;;27.95;;
51260;SDS011;61705;46.228;24.812;2023-03-21T01:44:15;49.92;;;26.30;;
51260;SDS011;61705;46.228;24.812;2023-03-21T01:46:43;52.85;;;26.98;;
51260;SDS011;61705;46.228;24.812;2023-03-21T01:49:37;52.30;;;26.00;;
51260;SDS011;61705;46.228;24.812;2023-03-21T01:52:07;48.47;;;26.95;;
51260;SDS011;61705;46.228;24.812;2023-03-21T01:54:54;50.53;;;27.35;;
51260;SDS011;61705;46.228;24.812;2023-03-21T01:57:30;45.13;;;24.20;;
51260;SDS011;61705;46.228;24.812;2023-03-21T02:00:17;45.28;;;23.88;;
51260;SDS011;61705;46.228;24.812;2023-03-21T02:02:48;45.72;;;23.42;;
51260;SDS011;61705;46.228;24.812;2023-03-21T02:08:04;40.92;;;22.33;;
51260;SDS011;61705;46.228;24.812;2023-03-21T02:10:31;43.42;;;22.35;;
51260;SDS011;61705;46.228;24.812;2023-03-21T02:13:00;44.30;;;24.17;;
51260;SDS011;61705;46.228;24.812;2023-03-21T02:15:39;42.63;;;25.08;;
51260;SDS011;61705;46.228;24.812;2023-03-21T02:26:50;39.63;;;18.50;;
51260;SDS011;61705;46.228;24.812;2023-03-21T02:38:26;48.72;;;24.42;;
51260;SDS011;61705;46.228;24.812;2023-03-21T02:42:06;41.80;;;21.25;;
51260;SDS011;61705;46.228;24.812;2023-03-21T02:52:03;32.28;;;17.00;;
51260;SDS011;61705;46.228;24.812;2023-03-21T02:54:43;36.97;;;17.55;;
51260;SDS011;61705;46.228;24.812;2023-03-21T02:57:15;33.92;;;17.48;;
51260;SDS011;61705;46.228;24.812;2023-03-21T02:59:52;31.95;;;17.40;;
51260;SDS011;61705;46.228;24.812;2023-03-21T03:02:27;31.83;;;17.50;;
51260;SDS011;61705;46.228;24.812;2023-03-21T03:04:57;33.15;;;16.88;;
51260;SDS011;61705;46.228;24.812;2023-03-21T03:13:28;43.72;;;20.35;;
51260;SDS011;61705;46.228;24.812;2023-03-21T03:19:29;53.83;;;22.13;;
51260;SDS011;61705;46.228;24.812;2023-03-21T03:22:16;40.50;;;22.20;;
51260;SDS011;61705;46.228;24.812;2023-03-21T03:25:01;39.45;;;20.70;;
51260;SDS011;61705;46.228;24.812;2023-03-21T03:27:50;45.92;;;20.63;;
51260;SDS011;61705;46.228;24.812;2023-03-21T03:30:28;40.72;;;21.15;;
51260;SDS011;61705;46.228;24.812;2023-03-21T03:33:13;36.38;;;18.15;;
51260;SDS011;61705;46.228;24.812;2023-03-21T03:35:43;39.53;;;19.55;;
51260;SDS011;61705;46.228;24.812;2023-03-21T03:38:29;35.95;;;20.15;;
51260;SDS011;61705;46.228;24.812;2023-03-21T03:40:58;36.85;;;21.02;;
51260;SDS011;61705;46.228;24.812;2023-03-21T03:43:39;46.63;;;21.45;;
51260;SDS011;61705;46.228;24.812;2023-03-21T03:46:18;54.08;;;23.17;;
51260;SDS011;61705;46.228;24.812;2023-03-21T03:48:57;48.55;;;23.38;;
51260;SDS011;61705;46.228;24.812;2023-03-21T03:54:12;49.13;;;22.77;;
51260;SDS011;61705;46.228;24.812;2023-03-21T03:56:47;48.30;;;24.20;;
51260;SDS011;61705;46.228;24.812;2023-03-21T03:59:15;44.83;;;21.92;;
51260;SDS011;61705;46.228;24.812;2023-03-21T04:01:48;45.40;;;24.53;;
51260;SDS011;61705;46.228;24.812;2023-03-21T04:04:16;54.45;;;26.25;;
51260;SDS011;61705;46.228;24.812;2023-03-21T04:06:46;51.50;;;25.20;;
51260;SDS011;61705;46.228;24.812;2023-03-21T04:09:18;55.47;;;24.75;;
51260;SDS011;61705;46.228;24.812;2023-03-21T04:11:56;51.78;;;26.10;;
51260;SDS011;61705;46.228;24.812;2023-03-21T04:14:23;48.00;;;26.23;;
51260;SDS011;61705;46.228;24.812;2023-03-21T04:17:07;54.97;;;27.02;;
51260;SDS011;61705;46.228;24.812;2023-03-21T04:19:34;47.45;;;26.55;;
51260;SDS011;61705;46.228;24.812;2023-03-21T04:22:01;73.03;;;30.75;;
51260;SDS011;61705;46.228;24.812;2023-03-21T04:24:30;70.50;;;30.33;;
51260;SDS011;61705;46.228;24.812;2023-03-21T04:26:59;60.65;;;30.98;;
51260;SDS011;61705;46.228;24.812;2023-03-21T04:29:27;60.50;;;31.30;;
51260;SDS011;61705;46.228;24.812;2023-03-21T04:31:55;58.30;;;29.52;;
51260;SDS011;61705;46.228;24.812;2023-03-21T04:34:24;63.55;;;29.88;;
51260;SDS011;61705;46.228;24.812;2023-03-21T04:36:55;65.40;;;31.25;;
51260;SDS011;61705;46.228;24.812;2023-03-21T04:39:25;76.63;;;46.08;;
51260;SDS011;61705;46.228;24.812;2023-03-21T04:41:56;70.50;;;33.40;;
51260;SDS011;61705;46.228;24.812;2023-03-21T04:44:25;68.30;;;33.47;;
51260;SDS011;61705;46.228;24.812;2023-03-21T04:46:55;74.63;;;35.20;;
51260;SDS011;61705;46.228;24.812;2023-03-21T04:49:21;64.07;;;30.38;;
51260;SDS011;61705;46.228;24.812;2023-03-21T04:51:48;55.17;;;29.02;;
51260;SDS011;61705;46.228;24.812;2023-03-21T04:54:23;62.05;;;30.27;;
51260;SDS011;61705;46.228;24.812;2023-03-21T04:56:51;49.88;;;27.05;;
51260;SDS011;61705;46.228;24.812;2023-03-21T04:59:18;48.60;;;25.33;;
51260;SDS011;61705;46.228;24.812;2023-03-21T05:01:46;52.03;;;27.38;;
51260;SDS011;61705;46.228;24.812;2023-03-21T05:04:17;57.08;;;27.50;;
51260;SDS011;61705;46.228;24.812;2023-03-21T05:06:44;48.28;;;27.10;;
51260;SDS011;61705;46.228;24.812;2023-03-21T05:09:12;44.80;;;25.50;;
51260;SDS011;61705;46.228;24.812;2023-03-21T05:11:39;60.53;;;29.70;;
51260;SDS011;61705;46.228;24.812;2023-03-21T05:14:07;65.45;;;28.35;;
51260;SDS011;61705;46.228;24.812;2023-03-21T05:16:39;50.08;;;26.40;;
51260;SDS011;61705;46.228;24.812;2023-03-21T05:19:14;59.72;;;27.58;;
51260;SDS011;61705;46.228;24.812;2023-03-21T05:21:51;60.50;;;28.77;;
51260;SDS011;61705;46.228;24.812;2023-03-21T05:24:23;62.95;;;29.10;;
51260;SDS011;61705;46.228;24.812;2023-03-21T05:26:49;57.63;;;29.00;;
51260;SDS011;61705;46.228;24.812;2023-03-21T05:29:17;50.50;;;25.80;;
51260;SDS011;61705;46.228;24.812;2023-03-21T05:31:47;48.78;;;25.67;;
51260;SDS011;61705;46.228;24.812;2023-03-21T05:34:14;53.72;;;27.40;;
51260;SDS011;61705;46.228;24.812;2023-03-21T05:36:41;48.80;;;25.23;;
51260;SDS011;61705;46.228;24.812;2023-03-21T05:39:08;54.25;;;26.70;;
51260;SDS011;61705;46.228;24.812;2023-03-21T05:41:34;53.53;;;26.25;;
51260;SDS011;61705;46.228;24.812;2023-03-21T05:44:01;47.92;;;24.77;;
51260;SDS011;61705;46.228;24.812;2023-03-21T05:46:28;47.08;;;24.30;;
51260;SDS011;61705;46.228;24.812;2023-03-21T05:48:54;44.88;;;24.90;;
51260;SDS011;61705;46.228;24.812;2023-03-21T05:51:21;48.28;;;25.50;;
51260;SDS011;61705;46.228;24.812;2023-03-21T05:53:48;46.95;;;26.30;;
51260;SDS011;61705;46.228;24.812;2023-03-21T05:56:15;45.15;;;23.83;;
51260;SDS011;61705;46.228;24.812;2023-03-21T05:58:41;49.13;;;25.95;;
51260;SDS011;61705;46.228;24.812;2023-03-21T06:01:11;45.03;;;25.30;;
51260;SDS011;61705;46.228;24.812;2023-03-21T06:03:37;53.40;;;25.90;;
51260;SDS011;61705;46.228;24.812;2023-03-21T06:06:04;51.17;;;25.65;;
51260;SDS011;61705;46.228;24.812;2023-03-21T06:08:33;49.45;;;24.00;;
51260;SDS011;61705;46.228;24.812;2023-03-21T06:11:16;54.92;;;25.95;;
51260;SDS011;61705;46.228;24.812;2023-03-21T06:13:48;46.83;;;24.42;;
51260;SDS011;61705;46.228;24.812;2023-03-21T06:16:15;53.78;;;25.33;;
51260;SDS011;61705;46.228;24.812;2023-03-21T06:18:42;44.40;;;24.05;;
51260;SDS011;61705;46.228;24.812;2023-03-21T06:23:43;47.75;;;26.05;;
51260;SDS011;61705;46.228;24.812;2023-03-21T06:26:09;51.92;;;27.83;;
51260;SDS011;61705;46.228;24.812;2023-03-21T06:28:36;52.28;;;28.23;;
51260;SDS011;61705;46.228;24.812;2023-03-21T06:31:08;61.15;;;31.08;;
51260;SDS011;61705;46.228;24.812;2023-03-21T06:33:38;50.58;;;27.92;;
51260;SDS011;61705;46.228;24.812;2023-03-21T06:36:05;48.55;;;25.17;;
51260;SDS011;61705;46.228;24.812;2023-03-21T06:38:32;46.35;;;26.10;;
51260;SDS011;61705;46.228;24.812;2023-03-21T06:40:58;54.08;;;26.80;;
51260;SDS011;61705;46.228;24.812;2023-03-21T06:43:30;49.40;;;26.15;;
51260;SDS011;61705;46.228;24.812;2023-03-21T06:45:57;42.42;;;23.67;;
51260;SDS011;61705;46.228;24.812;2023-03-21T06:48:27;48.95;;;23.10;;
51260;SDS011;61705;46.228;24.812;2023-03-21T06:50:59;51.28;;;24.52;;
51260;SDS011;61705;46.228;24.812;2023-03-21T06:53:30;45.10;;;22.60;;
51260;SDS011;61705;46.228;24.812;2023-03-21T06:56:00;44.20;;;22.55;;
51260;SDS011;61705;46.228;24.812;2023-03-21T06:58:26;45.40;;;23.92;;
51260;SDS011;61705;46.228;24.812;2023-03-21T07:00:53;48.05;;;23.75;;
51260;SDS011;61705;46.228;24.812;2023-03-21T07:03:20;44.55;;;24.08;;
51260;SDS011;61705;46.228;24.812;2023-03-21T07:05:52;47.30;;;22.90;;
51260;SDS011;61705;46.228;24.812;2023-03-21T07:08:21;46.15;;;25.52;;
51260;SDS011;61705;46.228;24.812;2023-03-21T07:10:48;44.03;;;23.65;;
51260;SDS011;61705;46.228;24.812;2023-03-21T07:13:14;37.05;;;20.65;;
51260;SDS011;61705;46.228;24.812;2023-03-21T07:15:45;33.55;;;19.02;;
51260;SDS011;61705;46.228;24.812;2023-03-21T07:18:14;37.67;;;19.70;;
51260;SDS011;61705;46.228;24.812;2023-03-21T07:20:45;33.50;;;19.08;;
51260;SDS011;61705;46.228;24.812;2023-03-21T07:23:20;34.55;;;19.35;;
51260;SDS011;61705;46.228;24.812;2023-03-21T07:25:52;39.92;;;20.25;;
51260;SDS011;61705;46.228;24.812;2023-03-21T07:28:19;38.30;;;20.60;;
51260;SDS011;61705;46.228;24.812;2023-03-21T07:30:53;40.63;;;19.55;;
51260;SDS011;61705;46.228;24.812;2023-03-21T07:33:22;38.17;;;19.80;;
51260;SDS011;61705;46.228;24.812;2023-03-21T07:35:51;44.95;;;23.08;;
51260;SDS011;61705;46.228;24.812;2023-03-21T07:38:22;41.22;;;20.58;;
51260;SDS011;61705;46.228;24.812;2023-03-21T07:40:50;31.98;;;18.67;;
51260;SDS011;61705;46.228;24.812;2023-03-21T07:43:22;34.72;;;18.50;;
51260;SDS011;61705;46.228;24.812;2023-03-21T07:45:49;32.38;;;18.52;;
51260;SDS011;61705;46.228;24.812;2023-03-21T07:48:16;36.30;;;19.70;;
51260;SDS011;61705;46.228;24.812;2023-03-21T07:50:47;36.15;;;18.58;;
51260;SDS011;61705;46.228;24.812;2023-03-21T07:53:14;42.10;;;19.77;;
51260;SDS011;61705;46.228;24.812;2023-03-21T07:55:46;36.90;;;21.63;;
51260;SDS011;61705;46.228;24.812;2023-03-21T07:58:25;39.17;;;20.98;;
51260;SDS011;61705;46.228;24.812;2023-03-21T08:00:57;30.80;;;17.17;;
51260;SDS011;61705;46.228;24.812;2023-03-21T08:03:29;36.53;;;18.45;;
51260;SDS011;61705;46.228;24.812;2023-03-21T08:05:58;30.90;;;17.80;;
51260;SDS011;61705;46.228;24.812;2023-03-21T08:08:26;32.75;;;17.48;;
51260;SDS011;61705;46.228;24.812;2023-03-21T08:10:53;29.45;;;15.65;;
51260;SDS011;61705;46.228;24.812;2023-03-21T08:13:20;30.98;;;17.50;;
51260;SDS011;61705;46.228;24.812;2023-03-21T08:15:47;33.05;;;17.70;;
51260;SDS011;61705;46.228;24.812;2023-03-21T08:18:14;30.75;;;17.63;;
51260;SDS011;61705;46.228;24.812;2023-03-21T08:20:40;39.28;;;18.73;;
51260;SDS011;61705;46.228;24.812;2023-03-21T08:23:07;34.67;;;17.80;;
51260;SDS011;61705;46.228;24.812;2023-03-21T08:25:34;30.38;;;16.25;;
51260;SDS011;61705;46.228;24.812;2023-03-21T08:28:01;29.25;;;16.90;;
51260;SDS011;61705;46.228;24.812;2023-03-21T08:30:29;29.27;;;17.77;;
51260;SDS011;61705;46.228;24.812;2023-03-21T08:32:56;32.95;;;19.13;;
51260;SDS011;61705;46.228;24.812;2023-03-21T08:35:26;25.45;;;15.95;;
51260;SDS011;61705;46.228;24.812;2023-03-21T08:37:54;25.70;;;15.93;;
51260;SDS011;61705;46.228;24.812;2023-03-21T08:40:24;31.13;;;15.95;;
51260;SDS011;61705;46.228;24.812;2023-03-21T08:42:51;38.72;;;21.38;;
51260;SDS011;61705;46.228;24.812;2023-03-21T08:45:18;40.40;;;23.10;;
51260;SDS011;61705;46.228;24.812;2023-03-21T08:47:52;29.08;;;15.60;;
51260;SDS011;61705;46.228;24.812;2023-03-21T08:50:20;29.92;;;16.50;;
51260;SDS011;61705;46.228;24.812;2023-03-21T08:52:51;35.92;;;21.13;;
51260;SDS011;61705;46.228;24.812;2023-03-21T08:55:18;33.25;;;17.40;;
51260;SDS011;61705;46.228;24.812;2023-03-21T08:57:45;30.13;;;17.30;;
51260;SDS011;61705;46.228;24.812;2023-03-21T09:00:16;28.80;;;16.98;;
51260;SDS011;61705;46.228;24.812;2023-03-21T09:02:46;35.35;;;19.58;;
51260;SDS011;61705;46.228;24.812;2023-03-21T09:05:17;33.88;;;18.85;;
51260;SDS011;61705;46.228;24.812;2023-03-21T09:07:44;32.22;;;17.95;;
51260;SDS011;61705;46.228;24.812;2023-03-21T09:10:13;32.95;;;20.02;;
51260;SDS011;61705;46.228;24.812;2023-03-21T09:12:51;27.60;;;15.82;;
51260;SDS011;61705;46.228;24.812;2023-03-21T09:30:19;30.87;;;17.87;;
51260;SDS011;61705;46.228;24.812;2023-03-21T09:32:51;36.10;;;21.52;;
51260;SDS011;61705;46.228;24.812;2023-03-21T09:35:22;31.70;;;18.38;;
51260;SDS011;61705;46.228;24.812;2023-03-21T09:37:52;28.85;;;18.08;;
51260;SDS011;61705;46.228;24.812;2023-03-21T09:49:18;33.80;;;16.50;;
51260;SDS011;61705;46.228;24.812;2023-03-21T09:51:53;27.42;;;15.18;;
51260;SDS011;61705;46.228;24.812;2023-03-21T09:56:56;28.88;;;16.45;;
51260;SDS011;61705;46.228;24.812;2023-03-21T10:07:52;27.95;;;14.02;;
51260;SDS011;61705;46.228;24.812;2023-03-21T10:10:24;27.98;;;15.00;;
51260;SDS011;61705;46.228;24.812;2023-03-21T10:13:00;29.60;;;16.25;;
51260;SDS011;61705;46.228;24.812;2023-03-21T10:15:29;38.75;;;18.13;;
51260;SDS011;61705;46.228;24.812;2023-03-21T10:18:00;35.85;;;17.75;;
51260;SDS011;61705;46.228;24.812;2023-03-21T10:20:36;32.40;;;16.35;;
51260;SDS011;61705;46.228;24.812;2023-03-21T10:23:05;31.85;;;16.67;;
51260;SDS011;61705;46.228;24.812;2023-03-21T10:25:38;38.83;;;18.13;;
51260;SDS011;61705;46.228;24.812;2023-03-21T10:28:19;31.67;;;15.80;;
51260;SDS011;61705;46.228;24.812;2023-03-21T10:36:09;33.72;;;19.40;;
51260;SDS011;61705;46.228;24.812;2023-03-21T10:38:40;33.13;;;21.05;;
51260;SDS011;61705;46.228;24.812;2023-03-21T10:41:17;30.08;;;17.50;;
51260;SDS011;61705;46.228;24.812;2023-03-21T10:43:46;26.70;;;13.60;;
51260;SDS011;61705;46.228;24.812;2023-03-21T10:54:07;26.50;;;14.10;;
51260;SDS011;61705;46.228;24.812;2023-03-21T10:56:50;25.95;;;14.43;;
51260;SDS011;61705;46.228;24.812;2023-03-21T10:59:25;38.97;;;16.30;;
51260;SDS011;61705;46.228;24.812;2023-03-21T11:02:01;24.45;;;14.07;;
51260;SDS011;61705;46.228;24.812;2023-03-21T11:04:29;20.77;;;12.35;;
51260;SDS011;61705;46.228;24.812;2023-03-21T11:07:02;23.35;;;12.15;;
51260;SDS011;61705;46.228;24.812;2023-03-21T11:09:53;19.27;;;10.68;;
51260;SDS011;61705;46.228;24.812;2023-03-21T11:12:29;30.10;;;13.68;;
51260;SDS011;61705;46.228;24.812;2023-03-21T11:15:13;22.90;;;13.40;;
51260;SDS011;61705;46.228;24.812;2023-03-21T11:17:57;19.52;;;11.23;;
51260;SDS011;61705;46.228;24.812;2023-03-21T11:20:25;16.40;;;9.55;;
51260;SDS011;61705;46.228;24.812;2023-03-21T11:23:00;42.40;;;24.00;;
51260;SDS011;61705;46.228;24.812;2023-03-21T11:25:34;12.27;;;7.20;;
51260;SDS011;61705;46.228;24.812;2023-03-21T13:37:37;16.55;;;5.97;;
51260;SDS011;61705;46.228;24.812;2023-03-21T13:45:30;22.60;;;6.15;;
51260;SDS011;61705;46.228;24.812;2023-03-21T13:48:31;13.38;;;5.20;;
51260;SDS011;61705;46.228;24.812;2023-03-21T13:51:16;38.63;;;10.07;;
51260;SDS011;61705;46.228;24.812;2023-03-21T13:54:03;24.85;;;6.95;;
51260;SDS011;61705;46.228;24.812;2023-03-21T13:59:20;13.85;;;5.82;;
51260;SDS011;61705;46.228;24.812;2023-03-21T14:05:16;18.48;;;5.82;;
51260;SDS011;61705;46.228;24.812;2023-03-21T14:07:52;7.85;;;4.55;;
51260;SDS011;61705;46.228;24.812;2023-03-21T14:10:41;17.48;;;6.00;;
51260;SDS011;61705;46.228;24.812;2023-03-21T14:13:11;34.75;;;8.63;;
51260;SDS011;61705;46.228;24.812;2023-03-21T14:15:50;22.33;;;6.13;;
51260;SDS011;61705;46.228;24.812;2023-03-21T14:18:22;21.60;;;7.13;;
51260;SDS011;61705;46.228;24.812;2023-03-21T14:21:14;13.65;;;4.72;;
51260;SDS011;61705;46.228;24.812;2023-03-21T14:23:57;10.80;;;5.38;;
51260;SDS011;61705;46.228;24.812;2023-03-21T14:26:44;46.35;;;7.88;;
51260;SDS011;61705;46.228;24.812;2023-03-21T14:29:36;10.35;;;5.03;;
51260;SDS011;61705;46.228;24.812;2023-03-21T14:32:01;15.32;;;5.57;;
51260;SDS011;61705;46.228;24.812;2023-03-21T14:34:32;28.08;;;9.55;;
51260;SDS011;61705;46.228;24.812;2023-03-21T14:37:05;32.13;;;7.07;;
51260;SDS011;61705;46.228;24.812;2023-03-21T14:39:36;45.53;;;18.13;;
51260;SDS011;61705;46.228;24.812;2023-03-21T14:42:06;49.80;;;10.05;;
51260;SDS011;61705;46.228;24.812;2023-03-21T14:44:41;15.10;;;4.82;;
51260;SDS011;61705;46.228;24.812;2023-03-21T14:47:53;7.93;;;4.45;;
51260;SDS011;61705;46.228;24.812;2023-03-21T14:53:20;27.60;;;7.03;;
51260;SDS011;61705;46.228;24.812;2023-03-21T14:58:23;73.70;;;10.10;;
51260;SDS011;61705;46.228;24.812;2023-03-21T15:00:51;48.53;;;8.23;;
51260;SDS011;61705;46.228;24.812;2023-03-21T15:03:21;28.50;;;6.65;;
51260;SDS011;61705;46.228;24.812;2023-03-21T15:05:54;35.67;;;6.78;;
51260;SDS011;61705;46.228;24.812;2023-03-21T15:08:30;52.78;;;8.63;;
51260;SDS011;61705;46.228;24.812;2023-03-21T15:10:58;27.33;;;5.40;;
51260;SDS011;61705;46.228;24.812;2023-03-21T15:16:17;30.67;;;6.82;;
51260;SDS011;61705;46.228;24.812;2023-03-21T15:18:45;18.25;;;5.50;;
51260;SDS011;61705;46.228;24.812;2023-03-21T15:23:45;16.15;;;4.20;;
51260;SDS011;61705;46.228;24.812;2023-03-21T15:26:21;23.35;;;5.18;;
51260;SDS011;61705;46.228;24.812;2023-03-21T15:28:57;25.02;;;5.03;;
51260;SDS011;61705;46.228;24.812;2023-03-21T15:31:41;33.80;;;6.75;;
51260;SDS011;61705;46.228;24.812;2023-03-21T15:34:20;13.70;;;5.35;;
51260;SDS011;61705;46.228;24.812;2023-03-21T15:36:53;28.90;;;5.13;;
51260;SDS011;61705;46.228;24.812;2023-03-21T15:39:22;64.72;;;8.02;;
51260;SDS011;61705;46.228;24.812;2023-03-21T15:41:55;13.10;;;4.32;;
51260;SDS011;61705;46.228;24.812;2023-03-21T15:44:30;20.10;;;4.68;;
51260;SDS011;61705;46.228;24.812;2023-03-21T15:46:58;34.10;;;8.85;;
51260;SDS011;61705;46.228;24.812;2023-03-21T15:54:50;7.75;;;4.05;;
51260;SDS011;61705;46.228;24.812;2023-03-21T16:00:12;22.50;;;4.65;;
51260;SDS011;61705;46.228;24.812;2023-03-21T16:02:47;28.30;;;6.55;;
51260;SDS011;61705;46.228;24.812;2023-03-21T16:08:05;20.65;;;8.48;;
51260;SDS011;61705;46.228;24.812;2023-03-21T16:10:47;39.40;;;9.30;;
51260;SDS011;61705;46.228;24.812;2023-03-21T16:23:14;16.80;;;7.78;;
51260;SDS011;61705;46.228;24.812;2023-03-21T16:25:41;30.17;;;8.55;;
51260;SDS011;61705;46.228;24.812;2023-03-21T16:28:15;23.00;;;7.55;;
51260;SDS011;61705;46.228;24.812;2023-03-21T16:30:43;38.53;;;9.45;;
51260;SDS011;61705;46.228;24.812;2023-03-21T16:33:14;22.45;;;7.38;;
51260;SDS011;61705;46.228;24.812;2023-03-21T16:35:50;21.25;;;6.80;;
51260;SDS011;61705;46.228;24.812;2023-03-21T16:38:27;16.20;;;5.88;;
51260;SDS011;61705;46.228;24.812;2023-03-21T16:40:53;23.58;;;8.57;;
51260;SDS011;61705;46.228;24.812;2023-03-21T16:43:20;28.02;;;9.88;;
51260;SDS011;61705;46.228;24.812;2023-03-21T16:45:49;20.77;;;8.18;;
51260;SDS011;61705;46.228;24.812;2023-03-21T16:48:16;29.52;;;8.88;;
51260;SDS011;61705;46.228;24.812;2023-03-21T16:50:47;19.55;;;8.07;;
51260;SDS011;61705;46.228;24.812;2023-03-21T16:53:14;14.25;;;6.93;;
51260;SDS011;61705;46.228;24.812;2023-03-21T16:55:42;19.90;;;7.70;;
51260;SDS011;61705;46.228;24.812;2023-03-21T16:58:09;25.65;;;8.05;;
51260;SDS011;61705;46.228;24.812;2023-03-21T17:00:42;17.75;;;8.57;;
51260;SDS011;61705;46.228;24.812;2023-03-21T17:03:13;35.97;;;9.23;;
51260;SDS011;61705;46.228;24.812;2023-03-21T17:05:44;15.18;;;7.28;;
51260;SDS011;61705;46.228;24.812;2023-03-21T17:08:15;26.85;;;7.68;;
51260;SDS011;61705;46.228;24.812;2023-03-21T17:10:44;24.58;;;7.85;;
51260;SDS011;61705;46.228;24.812;2023-03-21T17:13:14;23.23;;;9.80;;
51260;SDS011;61705;46.228;24.812;2023-03-21T17:15:41;20.73;;;5.93;;
51260;SDS011;61705;46.228;24.812;2023-03-21T17:18:09;29.75;;;7.65;;
51260;SDS011;61705;46.228;24.812;2023-03-21T17:20:39;42.55;;;11.00;;
51260;SDS011;61705;46.228;24.812;2023-03-21T17:23:10;23.15;;;8.90;;
51260;SDS011;61705;46.228;24.812;2023-03-21T17:25:37;28.63;;;12.75;;
51260;SDS011;61705;46.228;24.812;2023-03-21T17:28:04;40.45;;;12.55;;
51260;SDS011;61705;46.228;24.812;2023-03-21T17:30:34;25.92;;;8.20;;
51260;SDS011;61705;46.228;24.812;2023-03-21T17:33:04;22.33;;;7.90;;
51260;SDS011;61705;46.228;24.812;2023-03-21T17:35:33;15.15;;;8.10;;
51260;SDS011;61705;46.228;24.812;2023-03-21T17:38:00;19.08;;;9.18;;
51260;SDS011;61705;46.228;24.812;2023-03-21T17:40:28;28.23;;;11.15;;
51260;SDS011;61705;46.228;24.812;2023-03-21T17:42:57;27.65;;;9.80;;
51260;SDS011;61705;46.228;24.812;2023-03-21T17:45:27;26.42;;;11.95;;
51260;SDS011;61705;46.228;24.812;2023-03-21T17:47:54;52.80;;;12.10;;
51260;SDS011;61705;46.228;24.812;2023-03-21T17:50:24;34.92;;;10.40;;
51260;SDS011;61705;46.228;24.812;2023-03-21T17:52:52;35.78;;;11.77;;
51260;SDS011;61705;46.228;24.812;2023-03-21T17:55:21;30.20;;;14.52;;
51260;SDS011;61705;46.228;24.812;2023-03-21T18:05:24;7.25;;;3.38;;
51260;SDS011;61705;46.228;24.812;2023-03-21T18:07:58;5.10;;;2.67;;
51260;SDS011;61705;46.228;24.812;2023-03-21T18:10:36;5.63;;;3.08;;
51260;SDS011;61705;46.228;24.812;2023-03-21T18:13:06;5.43;;;3.05;;
51260;SDS011;61705;46.228;24.812;2023-03-21T18:15:44;6.68;;;3.25;;
51260;SDS011;61705;46.228;24.812;2023-03-21T18:18:13;11.70;;;3.70;;
51260;SDS011;61705;46.228;24.812;2023-03-21T18:20:43;13.52;;;4.93;;
51260;SDS011;61705;46.228;24.812;2023-03-21T18:23:18;9.20;;;3.72;;
51260;SDS011;61705;46.228;24.812;2023-03-21T18:25:47;9.85;;;4.35;;
51260;SDS011;61705;46.228;24.812;2023-03-21T18:28:14;32.95;;;7.10;;
51260;SDS011;61705;46.228;24.812;2023-03-21T18:30:45;14.20;;;6.07;;
51260;SDS011;61705;46.228;24.812;2023-03-21T18:33:37;24.45;;;5.97;;
51260;SDS011;61705;46.228;24.812;2023-03-21T18:36:07;15.88;;;4.75;;
51260;SDS011;61705;46.228;24.812;2023-03-21T18:38:40;22.20;;;5.90;;
51260;SDS011;61705;46.228;24.812;2023-03-21T18:41:14;16.90;;;4.78;;
51260;SDS011;61705;46.228;24.812;2023-03-21T18:44:02;10.43;;;4.40;;
51260;SDS011;61705;46.228;24.812;2023-03-21T18:46:44;13.27;;;4.32;;
51260;SDS011;61705;46.228;24.812;2023-03-21T18:49:13;19.80;;;7.40;;
51260;SDS011;61705;46.228;24.812;2023-03-21T18:52:04;15.82;;;6.97;;
51260;SDS011;61705;46.228;24.812;2023-03-21T18:54:34;16.13;;;5.25;;
51260;SDS011;61705;46.228;24.812;2023-03-21T18:57:02;11.85;;;5.45;;
51260;SDS011;61705;46.228;24.812;2023-03-21T18:59:52;14.93;;;6.88;;
51260;SDS011;61705;46.228;24.812;2023-03-21T19:02:19;28.08;;;7.70;;
51260;SDS011;61705;46.228;24.812;2023-03-21T19:04:46;25.77;;;6.25;;
51260;SDS011;61705;46.228;24.812;2023-03-21T19:07:16;18.38;;;4.97;;
51260;SDS011;61705;46.228;24.812;2023-03-21T19:09:46;31.73;;;6.75;;
51260;SDS011;61705;46.228;24.812;2023-03-21T19:12:40;10.20;;;4.40;;
51260;SDS011;61705;46.228;24.812;2023-03-21T19:15:10;10.82;;;4.88;;